Accueil
METAR-TAF:

METAR-TAF

Aéroports :

Trévise, Italie

latitude: 45-41N, longitude: 012-06E, altitude: 45 m

Observation

Le bulletin a été fait il y a 57 minutes, à 21:55 UTC
Température 5°C
Humidité 93%
Pression 1028 hPa
Visibilité 10 km ou plus
pas de nuages en-dessous de 1500 mètres et pas de cumulonimbus.

METAR: LIPS 212155Z /////KT CAVOK 05/04 Q1028 RMK SKC VIS MIN 9999 WIND THR26 23003KT WIND THR08 26002KT BLU

Heure: 23:52 (22:52 UTC)

Prévision

Le bulletin a été fait il y a 2 heures et 52 minutes, à 20:00 UTC
Prévision valable du 21 à 21 UTC au 22 à 06 UTC
Vent 4 kt de est/nord-est
Visibilité 10 km ou plus
pas de nuages en-dessous de 1500 mètres et pas de cumulonimbus.
Probabilité 40% :
Temporairement
du 22 à 02 UTC au 22 à 06 UTC
Visibilité: 5000 m
Nuages épars à une hauteur de 1000 ft
brume

TAF: LIPS 212000Z 2121/2206 06004KT CAVOK PROB40 TEMPO 2202/2206 5000 BR SCT010

Observations et prévisions météorologiques de plus de 4000 aéroports (messages METAR et TAF).

Les stations disponibles sont représentées par des disques jaunes et rouges sur la carte.

Passer la souris dessus pour voir le nom de la station.

Cliquer dessus pour voir les observations et prévisions météorologiques.

Pour changer de carte: cliquez sur les boutons verts avec une croix noire pour zoomer, sur le bouton vert avec un tiret pour effectuer un zoom arrière, ou sur les flèches vertes pour les cartes adjacentes.


METAR-TAF: